Terminal Aerodrome Forecast
Issued by NWS

Home | Current Version | Previous Version | Text Only | Print | Product List | Glossary On
Versions: 1 2 3 4 5 6 7 8 9 10 11 12 13 14 15
000
FTUS42 TJSJ 291720
TAFJSJ
TAF
TJSJ 291720Z 2918/3018 08015G25KT P6SM VCTS SCT030CB BKN050
     FM292300 11010KT P6SM VCSH SCT060
     FM301300 08015KT P6SM SCT030 SCT050=

USA.gov is the U.S. government's official web portal to all federal, state and local government web resources and services.